Time;durP1;ratioP1;P1;durP2;ratioP2;P2;SDS_P1;SDS_P2;PMS_P1;PMS_P2;Temp;Humidity;BMP_temperature;BMP_pressure;BME280_temperature;BME280_humidity;BME280_pressure;Samples;Min_cycle;Max_cycle;Signal;HPM_P1;HPM_P2
2022/05/15 00:01:30;;;;;;;;;11.00;11.00;;;;;14.27;66.17;99814.53;6316165;20;2789995;-51
2022/05/15 00:04:00;;;;;;;;;14.33;13.00;;;;;14.20;66.23;99807.84;6281370;20;3537756;-50
2022/05/15 00:06:28;;;;;;;;;12.00;12.00;;;;;14.53;64.79;99808.16;6312806;20;2795106;-50
2022/05/15 00:08:58;;;;;;;;;14.00;14.00;;;;;14.54;64.77;99815.28;6286068;20;3528572;-46
2022/05/15 00:11:27;;;;;;;;;11.00;11.00;;;;;14.70;64.31;99818.53;6311500;20;3512728;-48
2022/05/15 00:14:02;;;;;;;;;12.00;12.00;;;;;14.76;63.99;99809.09;6316025;20;3538800;-48
2022/05/15 00:16:32;;;;;;;;;12.00;12.00;;;;;14.63;64.32;99809.19;6314797;20;3528504;-48
2022/05/15 00:19:01;;;;;;;;;13.00;13.00;;;;;14.65;64.25;99805.38;6316167;20;2804663;-50
2022/05/15 00:21:29;;;;;;;;;11.00;11.00;;;;;14.75;64.23;99810.94;6315561;20;2809661;-51
2022/05/15 00:23:59;;;;;;;;;14.00;11.00;;;;;14.54;64.84;99812.59;6288651;20;2814857;-48
2022/05/15 00:26:28;;;;;;;;;10.00;9.33;;;;;14.61;64.46;99812.00;6281465;20;2767970;-48
2022/05/15 00:28:55;;;;;;;;;16.50;14.00;;;;;14.68;63.87;99805.13;6318434;20;2801428;-47
2022/05/15 00:31:23;;;;;;;;;13.50;13.00;;;;;14.61;64.49;99806.59;6286987;20;2806614;-47
2022/05/15 00:33:53;;;;;;;;;12.00;12.00;;;;;14.66;63.98;99803.53;6285088;20;3512702;-47
2022/05/15 00:36:20;;;;;;;;;12.00;11.00;;;;;14.27;65.91;99801.03;6315926;20;2786740;-49
2022/05/15 00:38:48;;;;;;;;;13.00;11.00;;;;;13.99;67.99;99795.94;6287579;20;2806592;-48
2022/05/15 00:41:17;;;;;;;;;12.00;12.00;;;;;13.97;68.06;99787.09;6284475;20;3529451;-49
2022/05/15 00:43:56;;;;;;;;;14.00;14.00;;;;;14.24;66.65;99793.16;6284745;20;2491950;-51
2022/05/15 00:46:36;;;;;;;;;13.67;12.00;;;;;14.15;67.27;99793.81;6281619;20;3529441;-48
2022/05/15 00:49:14;;;;;;;;;13.00;11.00;;;;;14.42;65.96;99787.31;6313717;20;3529919;-49
2022/05/15 00:51:56;;;;;;;;;13.50;11.00;;;;;14.63;64.43;99793.81;6314942;20;2800282;-50
2022/05/15 00:55:14;;;;;;;;;16.00;15.67;;;;;14.74;64.02;99794.84;6281025;20;3547235;-47
2022/05/15 00:57:49;;;;;;;;;12.50;12.50;;;;;14.76;63.92;99787.47;6282132;20;2790875;-48
2022/05/15 01:00:31;;;;;;;;;16.50;12.00;;;;;14.61;64.44;99790.41;6283495;20;2810930;-50
2022/05/15 01:03:13;;;;;;;;;12.00;11.00;;;;;14.76;63.99;99788.34;6287227;20;2797326;-52
2022/05/15 01:05:48;;;;;;;;;12.00;12.00;;;;;14.66;64.61;99793.56;6282959;20;3541267;-46
2022/05/15 01:08:22;;;;;;;;;12.00;11.00;;;;;14.75;63.83;99792.03;6317838;20;2792177;-53
2022/05/15 01:10:59;;;;;;;;;10.00;9.00;;;;;14.74;63.59;99790.28;6283298;20;2763860;-53
2022/05/15 01:13:34;;;;;;;;;13.00;12.00;;;;;14.81;63.21;99785.28;6315479;20;2785762;-54
2022/05/15 01:16:04;;;;;;;;;11.50;10.00;;;;;14.59;64.25;99789.63;6285804;20;2784682;-53
2022/05/15 01:18:37;;;;;;;;;14.50;12.50;;;;;14.71;63.89;99793.22;6281222;20;2796082;-53
2022/05/15 01:21:55;;;;;;;;;11.00;11.00;;;;;14.33;65.58;99786.19;6282417;20;3515843;-53
2022/05/15 01:24:24;;;;;;;;;12.00;12.00;;;;;14.33;65.30;99788.88;6309954;20;2795050;-56
2022/05/15 01:26:55;;;;;;;;;9.60;9.60;;;;;14.35;65.30;99794.16;6338266;20;2789857;-54
2022/05/15 01:29:32;;;;;;;;;10.33;10.33;;;;;14.39;65.33;99795.66;6280353;20;3521071;-51
2022/05/15 01:32:02;;;;;;;;;12.00;11.00;;;;;14.53;64.93;99795.50;6315220;20;2788895;-52
2022/05/15 01:34:31;;;;;;;;;13.00;13.00;;;;;14.40;65.03;99798.25;6285103;20;2802376;-53
2022/05/15 01:37:01;;;;;;;;;14.00;12.00;;;;;14.25;65.41;99797.56;6284926;20;2809765;-54
2022/05/15 01:39:31;;;;;;;;;12.00;12.00;;;;;14.30;66.07;99790.94;6316562;20;2806567;-54
2022/05/15 01:41:59;;;;;;;;;11.50;11.50;;;;;14.46;64.59;99791.53;6283729;20;2785754;-54
2022/05/15 01:44:27;;;;;;;;;13.00;13.00;;;;;14.42;64.72;99795.44;6285841;20;2802347;-54
2022/05/15 01:46:57;;;;;;;;;15.20;14.20;;;;;14.38;65.02;99799.34;6310144;20;2810667;-53
2022/05/15 01:49:26;;;;;;;;;14.33;11.67;;;;;14.39;64.98;99795.66;6282656;20;3532540;-53
2022/05/15 01:51:54;;;;;;;;;13.50;12.00;;;;;14.48;64.67;99798.53;6317569;20;2804519;-55
2022/05/15 01:54:24;;;;;;;;;13.80;11.60;;;;;14.62;64.31;99788.53;6305095;20;2793113;-55
2022/05/15 01:56:52;;;;;;;;;13.00;11.50;;;;;14.41;65.52;99791.88;6283324;20;2809643;-56
2022/05/15 01:59:21;;;;;;;;;14.33;13.00;;;;;14.56;64.60;99792.59;6283193;20;3528387;-53
2022/05/15 02:01:48;;;;;;;;;12.00;11.00;;;;;14.52;65.08;99796.44;6313150;20;2813827;-55
2022/05/15 02:04:16;;;;;;;;;8.50;8.50;;;;;14.67;64.35;99792.63;6286701;20;2756646;-52
2022/05/15 02:06:44;;;;;;;;;10.00;10.00;;;;;14.45;64.85;99795.19;6285741;20;2794398;-53
2022/05/15 02:09:12;;;;;;;;;12.00;12.00;;;;;14.43;65.05;99797.16;6287010;20;2798198;-51
2022/05/15 02:11:39;;;;;;;;;15.50;12.00;;;;;14.53;65.31;99795.50;6281124;20;2804492;-50
2022/05/15 02:14:09;;;;;;;;;14.00;11.00;;;;;14.44;65.40;99796.19;6281433;20;2789877;-48
2022/05/15 02:16:38;;;;;;;;;11.40;11.40;;;;;14.41;66.00;99804.53;6302487;20;2796099;-49
2022/05/15 02:19:07;;;;;;;;;12.00;12.00;;;;;14.32;66.09;99805.19;6280729;20;2802477;-52
2022/05/15 02:21:36;;;;;;;;;11.60;11.60;;;;;14.44;65.88;99798.88;6302417;20;2800277;-51
2022/05/15 02:24:05;;;;;;;;;17.00;13.00;;;;;14.44;66.12;99806.97;6281118;20;2808806;-51
2022/05/15 02:26:33;;;;;;;;;13.00;13.00;;;;;14.31;66.81;99811.59;6285795;20;2806554;-52
2022/05/15 02:29:01;;;;;;;;;14.00;12.00;;;;;14.38;66.42;99810.16;6284080;20;2798231;-50
2022/05/15 02:31:30;;;;;;;;;14.00;12.00;;;;;14.50;65.61;99809.22;6283306;20;2798220;-55
2022/05/15 02:34:00;;;;;;;;;11.00;11.00;;;;;14.60;65.28;99815.66;6310817;20;2794043;-53
2022/05/15 02:36:30;;;;;;;;;16.33;14.00;;;;;14.61;65.28;99817.41;6312084;20;3546202;-52
2022/05/15 02:38:59;;;;;;;;;13.67;12.33;;;;;14.51;65.84;99821.75;6311160;20;3531477;-52
2022/05/15 02:41:28;;;;;;;;;14.33;14.33;;;;;14.64;65.60;99817.19;6309613;20;2792024;-53
2022/05/15 02:43:57;;;;;;;;;11.00;11.00;;;;;14.25;66.99;99805.66;6312789;20;2786780;-56
2022/05/15 02:46:25;;;;;;;;;14.00;13.00;;;;;14.05;68.91;99814.38;6286310;20;2812775;-56
2022/05/15 02:51:39;;;;;;;;;15.00;12.50;;;;;13.86;70.57;99816.72;6314553;20;2806592;-50
2022/05/15 02:54:07;;;;;;;;;15.50;13.50;;;;;13.90;70.78;99816.41;6284450;20;2801535;-45
2022/05/15 02:56:37;;;;;;;;;14.50;13.50;;;;;13.83;71.22;99820.50;6285230;20;2804441;-44
2022/05/15 02:59:07;;;;;;;;;14.00;14.00;;;;;13.77;71.48;99827.22;6280597;20;3533591;-45
2022/05/15 03:01:37;;;;;;;;;14.67;14.00;;;;;14.08;69.96;99824.94;6277772;20;3541036;-46
2022/05/15 03:04:06;;;;;;;;;13.67;13.67;;;;;14.09;70.24;99826.69;6312637;20;3531634;-47
2022/05/15 03:06:34;;;;;;;;;15.00;15.00;;;;;13.65;72.32;99832.63;6309449;20;3531495;-45
2022/05/15 03:09:03;;;;;;;;;12.67;12.00;;;;;13.73;72.36;99831.09;6280314;20;3542975;-46
2022/05/15 03:11:31;;;;;;;;;15.00;15.00;;;;;13.73;72.25;99828.41;6315554;20;2807618;-45
2022/05/15 03:13:59;;;;;;;;;13.67;11.33;;;;;13.66;73.07;99832.50;6282392;20;3532557;-46
2022/05/15 03:16:29;;;;;;;;;19.67;16.00;;;;;13.81;72.68;99826.00;6276859;20;2825253;-47
2022/05/15 03:18:58;;;;;;;;;13.67;11.33;;;;;13.90;72.38;99826.31;6312112;20;3526381;-48
2022/05/15 03:21:29;;;;;;;;;16.00;16.00;;;;;13.78;73.48;99833.47;6278184;20;2500276;-46
2022/05/15 03:24:03;;;;;;;;;11.33;11.33;;;;;13.81;74.00;99828.69;6282586;20;3527339;-45
2022/05/15 03:26:38;;;;;;;;;12.00;12.00;;;;;13.72;74.12;99823.13;6314089;20;3528957;-47
2022/05/15 03:29:10;;;;;;;;;12.00;12.00;;;;;13.89;73.87;99832.69;6308021;20;3528498;-46
2022/05/15 03:31:39;;;;;;;;;17.00;16.00;;;;;13.92;73.40;99827.06;6309180;20;3562780;-45
2022/05/15 03:34:13;;;;;;;;;15.00;15.00;;;;;14.15;72.09;99834.34;6277563;20;3544208;-47
2022/05/15 03:36:46;;;;;;;;;19.00;15.00;;;;;13.89;73.19;99835.38;6277879;20;3549235;-45
2022/05/15 03:39:16;;;;;;;;;14.00;14.00;;;;;14.01;72.64;99829.09;6277746;20;3527289;-47
2022/05/15 03:41:44;;;;;;;;;17.00;14.00;;;;;13.91;72.93;99828.06;6280948;20;2806509;-47
2022/05/15 03:44:12;;;;;;;;;16.00;14.00;;;;;14.25;70.65;99838.06;6283145;20;2808675;-44
2022/05/15 03:46:43;;;;;;;;;14.67;13.67;;;;;14.06;72.00;99832.31;6282150;20;3526297;-46
2022/05/15 03:49:13;;;;;;;;;20.00;16.00;;;;;14.32;71.37;99843.00;6308242;20;2491980;-45
2022/05/15 03:51:42;;;;;;;;;15.00;15.00;;;;;14.39;70.36;99839.75;6278200;20;2491973;-46
2022/05/15 03:54:11;;;;;;;;;14.33;14.00;;;;;14.08;73.02;99849.25;6278190;20;3533712;-45
2022/05/15 03:56:52;;;;;;;;;17.00;14.00;;;;;14.18;73.15;99844.91;6311952;20;2487773;-48
2022/05/15 03:59:29;;;;;;;;;13.00;13.00;;;;;14.08;73.27;99849.25;6277490;20;3537751;-47
2022/05/15 04:02:00;;;;;;;;;14.67;14.67;;;;;14.34;72.02;99846.47;6310291;20;3532524;-46
2022/05/15 04:04:29;;;;;;;;;14.00;14.00;;;;;14.87;69.04;99850.53;6284095;20;2799233;-46
2022/05/15 04:06:58;;;;;;;;;14.00;14.00;;;;;14.98;68.22;99852.44;6277457;20;2491938;-47
2022/05/15 04:09:27;;;;;;;;;15.00;14.00;;;;;15.35;66.03;99849.56;6284105;20;2803407;-45
2022/05/15 04:11:56;;;;;;;;;14.00;14.00;;;;;16.13;63.10;99847.84;6279883;20;2803743;-46
2022/05/15 04:14:25;;;;;;;;;11.33;11.33;;;;;16.29;62.38;99853.72;6279719;20;3519110;-47
2022/05/15 04:16:54;;;;;;;;;13.00;13.00;;;;;15.95;63.73;99845.63;6310211;20;3531606;-46
2022/05/15 04:19:23;;;;;;;;;15.67;14.00;;;;;15.25;68.30;99853.97;6308991;20;3543027;-45
2022/05/15 04:21:52;;;;;;;;;14.67;13.00;;;;;15.17;68.81;99849.16;6278702;20;3534662;-46
2022/05/15 04:24:20;;;;;;;;;12.67;12.67;;;;;16.51;62.48;99865.47;6311068;20;3535835;-51
2022/05/15 04:26:48;;;;;;;;;14.00;14.00;;;;;16.40;62.49;99858.22;6280841;20;2798205;-51
2022/05/15 04:29:17;;;;;;;;;17.00;14.00;;;;;16.29;62.62;99860.97;6281493;20;2819147;-50
2022/05/15 04:31:45;;;;;;;;;11.67;11.67;;;;;16.04;64.45;99868.41;6278503;20;3536712;-51
2022/05/15 04:34:14;;;;;;;;;16.00;15.00;;;;;15.91;66.24;99873.09;6275667;20;3552408;-49
2022/05/15 04:36:43;;;;;;;;;14.67;14.00;;;;;16.01;66.24;99866.81;6279123;20;3532933;-45
2022/05/15 04:39:10;;;;;;;;;15.00;14.00;;;;;15.98;65.45;99864.38;6309657;20;2488326;-45
2022/05/15 04:41:39;;;;;;;;;15.67;14.67;;;;;15.91;67.76;99868.56;6277383;20;3541913;-47
2022/05/15 04:44:07;;;;;;;;;16.50;14.00;;;;;16.05;66.63;99870.13;6276398;20;2491933;-47
2022/05/15 04:46:36;;;;;;;;;14.33;14.33;;;;;16.28;64.50;99876.38;6276277;20;3543979;-44
2022/05/15 04:49:05;;;;;;;;;15.33;15.33;;;;;16.09;67.02;99876.16;6310397;20;3552362;-48
2022/05/15 04:51:34;;;;;;;;;14.33;14.33;;;;;16.26;68.39;99878.34;6277666;20;3541955;-51
2022/05/15 04:54:03;;;;;;;;;13.67;13.00;;;;;16.39;67.65;99873.63;6282953;20;3523284;-57
2022/05/15 04:56:31;;;;;;;;;12.00;12.00;;;;;16.60;67.37;99880.97;6315441;20;3527372;-56
2022/05/15 04:59:00;;;;;;;;;14.33;14.33;;;;;16.97;65.58;99886.91;6283611;20;3530463;-54
2022/05/15 05:01:28;;;;;;;;;17.50;17.00;;;;;17.12;64.69;99887.44;6317817;20;2483582;-54
2022/05/15 05:03:58;;;;;;;;;14.67;14.67;;;;;17.40;64.11;99882.34;6310269;20;3530418;-56
2022/05/15 05:06:28;;;;;;;;;12.00;12.00;;;;;17.45;64.61;99885.50;6286831;20;2796216;-56
2022/05/15 05:08:57;;;;;;;;;15.00;14.00;;;;;17.12;67.57;99887.44;6286703;20;3541894;-56
2022/05/15 05:11:26;;;;;;;;;14.67;14.67;;;;;17.68;61.92;99884.38;6281681;20;3543974;-54
2022/05/15 05:13:55;;;;;;;;;14.00;12.00;;;;;17.78;59.77;99890.72;6282410;20;3474199;-56
2022/05/15 05:16:24;;;;;;;;;15.33;12.33;;;;;18.16;58.85;99894.59;6314858;20;3508748;-51
2022/05/15 05:18:53;;;;;;;;;12.00;12.00;;;;;18.38;58.06;99895.41;6314208;20;2807714;-50
2022/05/15 05:21:22;;;;;;;;;14.33;13.00;;;;;18.50;58.34;99890.69;6314605;20;3539862;-53
2022/05/15 05:23:49;;;;;;;;;16.00;14.50;;;;;18.78;57.24;99908.09;6284856;20;2815911;-51
2022/05/15 05:26:18;;;;;;;;;13.00;13.00;;;;;18.55;59.22;99894.69;6282210;20;3537808;-52
2022/05/15 05:28:46;;;;;;;;;11.00;11.00;;;;;18.93;56.98;99901.22;6286845;20;2808695;-50
2022/05/15 05:31:14;;;;;;;;;14.00;11.00;;;;;19.00;57.01;99898.78;6289122;20;2813844;-53
2022/05/15 05:33:44;;;;;;;;;13.33;13.33;;;;;19.20;59.16;99905.94;6279491;20;2801324;-52
2022/05/15 05:36:13;;;;;;;;;11.67;10.33;;;;;19.49;57.58;99908.63;6313330;20;3528391;-51
2022/05/15 05:38:40;;;;;;;;;12.00;12.00;;;;;19.92;54.84;99915.41;6281724;20;2794153;-53
2022/05/15 05:41:09;;;;;;;;;13.00;11.67;;;;;20.00;54.52;99913.81;6283522;20;3535729;-52
2022/05/15 05:43:37;;;;;;;;;13.00;13.00;;;;;19.75;56.91;99910.75;6318506;20;2796134;-53
2022/05/15 05:46:05;;;;;;;;;15.33;13.00;;;;;19.94;55.31;99916.13;6281936;20;3539871;-52
2022/05/15 05:48:34;;;;;;;;;11.00;10.67;;;;;20.13;53.72;99917.91;6283079;20;3514918;-50
2022/05/15 05:51:03;;;;;;;;;11.33;11.33;;;;;20.24;52.90;99919.59;6311743;20;2791952;-49
2022/05/15 05:53:33;;;;;;;;;13.33;12.33;;;;;20.56;53.08;99915.56;6313943;20;3515999;-52
2022/05/15 05:56:02;;;;;;;;;11.00;11.00;;;;;20.54;52.08;99926.66;6316916;20;2804540;-53
2022/05/15 05:58:31;;;;;;;;;11.00;10.00;;;;;20.61;50.16;99924.16;6320744;20;2781552;-51
2022/05/15 06:01:01;;;;;;;;;11.33;10.00;;;;;20.73;51.84;99922.94;6281506;20;3508663;-49
2022/05/15 06:06:19;;;;;;;;;11.67;9.00;;;;;21.10;47.86;99926.53;6284136;20;2771184;-47
2022/05/15 06:08:47;;;;;;;;;13.33;11.00;;;;;21.18;47.85;99919.28;6312596;20;2789928;-44
2022/05/15 06:11:17;;;;;;;;;8.00;8.00;;;;;21.40;44.26;99930.75;6343553;20;2751399;-46
2022/05/15 06:13:45;;;;;;;;;11.33;9.00;;;;;21.60;44.95;99924.09;6285229;20;2765903;-49
2022/05/15 06:16:14;;;;;;;;;10.67;9.67;;;;;21.48;45.48;99926.22;6315873;20;2776452;-47
2022/05/15 06:18:44;;;;;;;;;9.60;8.00;;;;;21.55;44.85;99929.16;6344518;20;2766049;-47
2022/05/15 06:21:14;;;;;;;;;9.33;8.00;;;;;21.79;42.08;99931.22;6285688;20;2756675;-51
2022/05/15 06:23:43;;;;;;;;;8.00;8.00;;;;;22.08;41.70;99939.06;6315439;20;2752350;-47
2022/05/15 06:26:12;;;;;;;;;12.00;10.00;;;;;22.19;41.27;99937.13;6315788;20;2783269;-50
2022/05/15 06:28:40;;;;;;;;;8.67;8.67;;;;;22.33;41.01;99945.56;6322253;20;2748205;-48
2022/05/15 06:31:10;;;;;;;;;8.40;8.40;;;;;22.30;39.82;99943.19;6344726;20;2747153;-49
2022/05/15 06:33:38;;;;;;;;;10.33;8.33;;;;;22.57;40.10;99942.06;6281800;20;2765901;-50
2022/05/15 06:36:07;;;;;;;;;11.00;11.00;;;;;22.75;38.19;99949.34;6316225;20;3515917;-48
2022/05/15 06:38:40;;;;;;;;;8.40;8.40;;;;;23.33;37.83;99958.50;6341611;20;2747121;-52
2022/05/15 06:41:11;;;;;;;;;9.00;9.00;;;;;23.19;37.20;99951.81;6285035;20;2748161;-47
2022/05/15 06:43:40;;;;;;;;;10.67;9.00;;;;;23.79;38.30;99957.00;6315164;20;2777330;-51
2022/05/15 06:46:08;;;;;;;;;9.00;9.00;;;;;24.38;37.37;99955.81;6321652;20;2762754;-46
2022/05/15 06:48:39;;;;;;;;;13.67;9.67;;;;;24.88;34.49;99957.31;6315931;20;2776495;-46
2022/05/15 06:51:08;;;;;;;;;9.33;7.67;;;;;24.77;35.52;99952.25;6317601;20;2740887;-48
2022/05/15 06:53:36;;;;;;;;;7.00;7.00;;;;;24.14;35.54;99954.88;6322557;20;2747194;-48
2022/05/15 06:58:52;;;;;;;;;9.67;9.00;;;;;25.24;33.53;99965.03;6323713;20;2762834;-46
2022/05/15 07:01:21;;;;;;;;;9.00;8.00;;;;;25.15;34.41;99961.47;6317224;20;2750272;-53
2022/05/15 07:03:50;;;;;;;;;9.33;9.33;;;;;25.12;32.52;99959.94;6316059;20;2762825;-54
2022/05/15 07:06:20;;;;;;;;;9.67;9.67;;;;;25.63;32.67;99959.41;6311689;20;3497190;-53
2022/05/15 07:08:49;;;;;;;;;9.00;9.00;;;;;25.84;33.63;99961.47;6317063;20;2754530;-47
2022/05/15 07:11:19;;;;;;;;;7.67;7.67;;;;;25.99;33.53;99962.38;6317950;20;2752332;-48
2022/05/15 07:13:47;;;;;;;;;9.33;9.00;;;;;25.58;33.35;99962.69;6316856;20;2761703;-51
2022/05/15 07:16:16;;;;;;;;;8.33;8.33;;;;;25.56;33.41;99966.69;6314893;20;2752382;-47
2022/05/15 07:18:45;;;;;;;;;11.00;9.33;;;;;26.13;32.79;99968.06;6315050;20;3499333;-49
2022/05/15 07:21:13;;;;;;;;;10.33;8.33;;;;;25.70;32.92;99959.50;6316183;20;2765944;-48
2022/05/15 07:23:42;;;;;;;;;10.33;9.33;;;;;26.41;31.37;99966.38;6315210;20;2781618;-49
2022/05/15 07:26:10;;;;;;;;;9.00;9.00;;;;;26.84;29.91;99969.28;6316853;20;2756519;-46
2022/05/15 07:28:39;;;;;;;;;8.00;8.00;;;;;26.65;30.32;99969.91;6317819;20;2741990;-49
2022/05/15 07:31:07;;;;;;;;;7.67;7.67;;;;;26.70;29.47;99964.66;6312425;20;2752323;-50
2022/05/15 07:33:36;;;;;;;;;7.00;7.00;;;;;26.82;28.86;99976.88;6316498;20;2741983;-49
2022/05/15 07:36:05;;;;;;;;;7.00;7.00;;;;;25.10;31.21;99969.41;6316270;20;2742010;-49
2022/05/15 07:38:33;;;;;;;;;7.00;7.00;;;;;25.90;30.34;99966.22;6318357;20;2747251;-48
2022/05/15 07:41:02;;;;;;;;;10.50;9.50;;;;;25.57;31.99;99963.75;6314848;20;2722521;-45
2022/05/15 07:43:35;;;;;;;;;8.80;8.80;;;;;26.40;30.10;99970.16;6340727;20;2748227;-48
2022/05/15 07:46:05;;;;;;;;;11.00;8.40;;;;;26.96;31.38;99971.53;6310261;20;2767996;-59
2022/05/15 07:48:36;;;;;;;;;8.67;6.17;;;;;26.57;30.41;99968.09;6336009;20;1794175;-47
2022/05/15 07:51:05;;;;;;;;;7.00;5.00;;;;;25.65;30.61;99971.09;6313158;20;2731554;-55
2022/05/15 07:53:33;;;;;;;;;8.00;8.00;;;;;26.58;30.30;99969.78;6316692;20;2748157;-54
2022/05/15 07:56:03;;;;;;;;;8.33;8.33;;;;;27.27;29.80;99971.28;6320379;20;2743068;-52
2022/05/15 07:58:32;;;;;;;;;7.00;7.00;;;;;27.28;29.05;99964.72;6316282;20;2749272;-56
2022/05/15 08:01:04;;;;;;;;;8.00;8.00;;;;;26.85;29.78;99962.72;6313407;20;2754424;-58
2022/05/15 08:03:43;;;;;;;;;7.67;6.00;;;;;27.03;30.71;99966.97;6317076;20;2741034;-58
2022/05/15 08:09:06;;;;;;;;;6.67;6.67;;;;;26.92;28.71;99973.84;6316069;20;2743999;-50
2022/05/15 08:11:36;;;;;;;;;5.67;5.67;;;;;26.34;30.32;99964.56;6319583;20;2727460;-58
2022/05/15 08:14:08;;;;;;;;;7.00;7.00;;;;;26.91;29.82;99963.88;6317457;20;2750285;-57
2022/05/15 08:16:38;;;;;;;;;6.00;4.80;;;;;25.32;31.56;99963.09;6339974;20;2729420;-56
2022/05/15 08:24:45;;;;;;;;;9.00;7.00;;;;;27.52;28.35;99971.75;6309424;20;2741958;-57
2022/05/15 08:27:15;;;;;;;;;8.40;7.40;;;;;27.21;28.54;99970.16;6311437;20;2744073;-56
2022/05/15 08:29:43;;;;;;;;;7.33;7.33;;;;;27.62;27.86;99972.28;6287456;20;2754404;-56
2022/05/15 08:32:12;;;;;;;;;5.67;5.67;;;;;27.27;28.22;99963.84;6324203;20;2743106;-55
2022/05/15 08:34:44;;;;;;;;;9.00;6.33;;;;;27.14;30.09;99974.72;6322606;20;2735700;-54
2022/05/15 08:37:13;;;;;;;;;6.00;5.00;;;;;26.57;30.17;99957.09;6323606;20;2733658;-53
2022/05/15 08:39:41;;;;;;;;;7.00;5.00;;;;;27.64;28.96;99959.13;6321432;20;2738810;-57
2022/05/15 08:42:36;;;;;;;;;5.00;5.00;;;;;27.92;27.75;99967.44;6314723;20;2738815;-58
2022/05/15 08:45:14;;;;;;;;;6.00;6.00;;;;;27.72;29.24;99964.47;6321339;20;2734678;-54
2022/05/15 08:47:47;;;;;;;;;4.80;4.40;;;;;28.16;27.25;99971.66;6347252;20;2739822;-52
2022/05/15 08:50:27;;;;;;;;;8.00;5.00;;;;;27.86;27.19;99973.78;6312496;20;2726485;-55
2022/05/15 08:53:14;;;;;;;;;6.00;6.00;;;;;27.15;27.62;99962.66;6320510;20;2739002;-54
2022/05/15 08:55:55;;;;;;;;;7.67;6.00;;;;;27.81;28.27;99964.41;6327157;20;2734655;-56
2022/05/15 08:58:52;;;;;;;;;7.67;6.00;;;;;27.88;28.02;99965.28;6321398;20;2748204;-53
2022/05/15 09:01:27;;;;;;;;;5.20;5.20;;;;;28.29;27.89;99959.84;6345651;20;2742987;-58
2022/05/15 09:03:56;;;;;;;;;6.33;6.33;;;;;27.94;29.85;99959.81;6288415;20;2737795;-56
2022/05/15 09:07:02;;;;;;;;;6.00;6.00;;;;;28.30;29.29;99952.41;6322778;20;2744091;-57
2022/05/15 09:10:36;;;;;;;;;5.67;5.67;;;;;27.27;29.10;99958.34;6330688;20;2737750;-52
2022/05/15 09:13:32;;;;;;;;;5.67;5.67;;;;;27.47;28.63;99949.44;6318713;20;2745059;-59
2022/05/15 09:16:04;;;;;;;;;6.67;6.67;;;;;27.62;28.82;99946.56;6314042;20;2736135;-59
2022/05/15 09:18:37;;;;;;;;;7.33;5.67;;;;;28.38;27.76;99943.94;6318539;20;2747145;-57
2022/05/15 09:21:14;;;;;;;;;7.00;5.00;;;;;27.86;27.88;99945.31;6323831;20;2733629;-56
2022/05/15 09:23:53;;;;;;;;;6.33;5.00;;;;;27.67;28.53;99942.16;6320704;20;2738930;-55
2022/05/15 09:26:47;;;;;;;;;4.80;4.80;;;;;27.99;27.61;99946.28;6344181;20;2738780;-56
2022/05/15 09:29:23;;;;;;;;;3.60;3.00;;;;;27.90;27.88;99946.63;6345295;20;2737745;-55
2022/05/15 09:31:54;;;;;;;;;7.75;5.50;;;;;27.53;27.47;99946.72;6329234;20;3460771;-54
2022/05/15 09:34:36;;;;;;;;;6.00;5.00;;;;;27.89;28.36;99942.16;6343205;20;2733385;-54
2022/05/15 09:40:08;;;;;;;;;4.00;4.00;;;;;27.85;27.93;99949.13;6341093;20;2745106;-54
2022/05/15 09:45:55;;;;;;;;;4.00;4.00;;;;;28.38;27.77;99938.44;6311984;20;2736707;-52
2022/05/15 09:48:37;;;;;;;;;3.00;3.00;;;;;28.22;27.35;99932.19;6310684;20;2727388;-56
2022/05/15 09:51:12;;;;;;;;;6.00;4.00;;;;;28.42;27.47;99926.78;6318281;20;2745107;-55
2022/05/15 09:53:49;;;;;;;;;7.00;5.00;;;;;27.69;28.26;99917.97;6343623;20;2731891;-55
2022/05/15 09:56:24;;;;;;;;;4.40;4.40;;;;;28.18;27.76;99922.59;6341307;20;2743163;-57
2022/05/15 09:59:09;;;;;;;;;4.00;4.00;;;;;27.78;26.94;99927.84;6311052;20;2751303;-57
2022/05/15 10:01:56;;;;;;;;;4.20;3.00;;;;;28.10;27.12;99914.50;6309308;20;2744003;-57
2022/05/15 10:04:31;;;;;;;;;6.00;4.00;;;;;28.00;27.79;99925.88;6313919;20;2747206;-58
2022/05/15 10:07:09;;;;;;;;;5.00;3.40;;;;;27.61;27.80;99928.31;6312509;20;2752362;-58
2022/05/15 10:09:41;;;;;;;;;6.00;4.33;;;;;27.46;27.81;99933.91;6286730;20;2738816;-58
2022/05/15 10:12:29;;;;;;;;;5.00;5.00;;;;;27.79;27.05;99929.53;6341877;20;2745057;-54
2022/05/15 10:15:07;;;;;;;;;6.00;5.00;;;;;27.83;26.69;99921.72;6307343;20;2733582;-59
2022/05/15 10:17:55;;;;;;;;;4.60;4.00;;;;;27.90;26.45;99927.31;6308882;20;2734620;-58
2022/05/15 10:20:35;;;;;;;;;3.00;3.00;;;;;28.07;27.14;99919.56;6306801;20;2754441;-58
2022/05/15 10:23:15;;;;;;;;;7.40;4.60;;;;;27.76;26.26;99927.16;6308395;20;2751391;-58
2022/05/15 10:26:22;;;;;;;;;2.67;2.67;;;;;27.53;26.92;99921.03;6286174;20;2731516;-58
2022/05/15 10:29:14;;;;;;;;;1.00;1.00;;;;;27.83;27.23;99918.13;6340787;20;2732533;-60
2022/05/15 10:32:02;;;;;;;;;3.20;3.20;;;;;28.52;25.94;99918.16;6341115;20;2753416;-60
2022/05/15 10:34:31;;;;;;;;;4.00;4.00;;;;;28.15;25.93;99925.78;6308234;20;2745033;-59
2022/05/15 10:37:37;;;;;;;;;4.00;3.00;;;;;28.18;25.55;99916.25;6311061;20;2735721;-59
2022/05/15 10:40:51;;;;;;;;;4.33;4.00;;;;;28.63;26.32;99914.78;6286150;20;2736778;-60
2022/05/15 10:43:58;;;;;;;;;4.20;4.20;;;;;28.23;26.21;99903.53;6344817;20;2737764;-59
2022/05/15 10:46:46;;;;;;;;;2.80;0.00;;;;;28.17;26.92;99898.81;6313656;20;2713786;-59
2022/05/15 10:50:26;;;;;;;;;6.40;6.40;;;;;27.74;27.10;99901.69;6343902;20;2740910;-60
2022/05/15 10:57:22;;;;;;;;;5.00;4.00;;;;;27.82;28.35;99895.19;6289073;20;2741937;-61
2022/05/15 11:00:33;;;;;;;;;5.00;4.60;;;;;28.21;27.48;99890.97;6337913;20;2747116;-58
2022/05/15 11:03:42;;;;;;;;;4.40;4.00;;;;;28.01;26.98;99886.19;6317199;20;2746072;-58
2022/05/15 11:06:45;;;;;;;;;4.00;4.00;;;;;28.16;27.34;99882.44;6307276;20;2735679;-59
2022/05/15 11:10:08;;;;;;;;;3.00;3.00;;;;;28.37;27.18;99881.50;6287854;20;2739931;-51
2022/05/15 11:13:16;;;;;;;;;6.00;4.20;;;;;28.26;28.27;99884.84;6339982;20;2739960;-59
2022/05/15 11:16:28;;;;;;;;;4.67;3.83;;;;;28.09;26.75;99874.13;6336805;20;3468969;-58
2022/05/15 11:19:35;;;;;;;;;5.80;4.00;;;;;28.32;26.99;99873.81;6312735;20;2754403;-61
2022/05/15 11:22:40;;;;;;;;;3.80;3.80;;;;;28.51;27.49;99880.50;6314330;20;2739035;-61
2022/05/15 11:25:35;;;;;;;;;4.33;3.00;;;;;28.56;26.81;99886.28;6285310;20;2745041;-59
2022/05/15 11:28:44;;;;;;;;;4.00;4.00;;;;;28.89;24.73;99880.00;6341841;20;2746136;-58
2022/05/15 11:31:35;;;;;;;;;3.60;3.60;;;;;28.50;25.78;99886.25;6310539;20;2732541;-59
2022/05/15 11:34:07;;;;;;;;;3.00;3.00;;;;;27.93;26.07;99880.81;6306583;20;2744076;-60
2022/05/15 11:36:49;;;;;;;;;5.00;3.33;;;;;27.93;23.96;99882.72;6285374;20;2748258;-60
2022/05/15 11:39:22;;;;;;;;;4.40;3.00;;;;;27.96;24.56;99866.63;6338484;20;2741956;-59
2022/05/15 11:42:09;;;;;;;;;3.20;3.20;;;;;27.46;27.08;99863.06;6308144;20;2726328;-62
2022/05/15 11:44:43;;;;;;;;;8.00;3.00;;;;;27.74;27.43;99865.81;6341572;20;2752346;-60
2022/05/15 11:47:21;;;;;;;;;5.20;3.40;;;;;28.12;26.98;99859.94;6310889;20;2746106;-47
2022/05/15 11:50:36;;;;;;;;;4.60;3.60;;;;;28.21;25.39;99852.31;6308834;20;2742958;-47
2022/05/15 11:53:12;;;;;;;;;4.80;3.60;;;;;27.61;26.04;99853.84;6304760;20;2744137;-47
2022/05/15 11:55:48;;;;;;;;;4.20;2.60;;;;;28.13;26.02;99853.34;6306844;20;2728390;-46
2022/05/15 11:58:33;;;;;;;;;4.00;4.00;;;;;28.05;28.03;99845.22;6319372;20;2729448;-58
2022/05/15 12:01:38;;;;;;;;;4.00;4.00;;;;;27.78;26.21;99835.94;6313265;20;2741955;-46
2022/05/15 12:04:35;;;;;;;;;6.00;4.33;;;;;27.56;26.97;99851.69;6321674;20;2747166;-56
2022/05/15 12:07:04;;;;;;;;;3.80;3.80;;;;;27.81;27.13;99838.31;6342906;20;2747159;-61
2022/05/15 12:10:00;;;;;;;;;4.80;3.80;;;;;28.09;25.94;99846.50;6315395;20;2744054;-55
2022/05/15 12:12:52;;;;;;;;;4.00;4.00;;;;;27.90;26.92;99837.06;6311989;20;2753379;-53